Time;durP1;ratioP1;P1;durP2;ratioP2;P2;SDS_P1;SDS_P2;PMS_P1;PMS_P2;Temp;Humidity;BMP_temperature;BMP_pressure;BME280_temperature;BME280_humidity;BME280_pressure;Samples;Min_cycle;Max_cycle;Signal;HPM_P1;HPM_P2
2023/08/14 00:00:15;;;;;;;4.63;4.10;;;;;;;;;;5028258;28;20228;-80
2023/08/14 00:02:40;;;;;;;4.57;4.13;;;;;;;;;;5027951;28;20262;-80
2023/08/14 00:05:05;;;;;;;4.10;3.70;;;;;;;;;;5019384;28;20178;-79
2023/08/14 00:07:31;;;;;;;5.03;4.07;;;;;;;;;;5045870;28;20241;-79
2023/08/14 00:09:56;;;;;;;4.53;4.00;;;;;;;;;;5045304;28;20229;-80
2023/08/14 00:12:21;;;;;;;4.37;3.97;;;;;;;;;;5029548;28;20280;-79
2023/08/14 00:14:47;;;;;;;6.10;4.03;;;;;;;;;;5025948;28;20193;-80
2023/08/14 00:17:12;;;;;;;4.00;3.70;;;;;;;;;;5025978;28;20192;-79
2023/08/14 00:19:37;;;;;;;6.87;3.67;;;;;;;;;;5028201;28;20178;-80
2023/08/14 00:22:02;;;;;;;7.50;4.20;;;;;;;;;;5028364;28;20183;-80
2023/08/14 00:24:27;;;;;;;4.50;4.10;;;;;;;;;;5026413;28;20180;-80
2023/08/14 00:26:53;;;;;;;4.33;3.93;;;;;;;;;;5027840;28;20200;-80
2023/08/14 00:29:18;;;;;;;4.97;4.40;;;;;;;;;;5027642;28;20171;-79
2023/08/14 00:31:43;;;;;;;4.30;3.90;;;;;;;;;;5027172;28;20209;-80
2023/08/14 00:34:08;;;;;;;5.10;4.03;;;;;;;;;;5025638;28;20262;-80
2023/08/14 00:36:33;;;;;;;5.53;4.33;;;;;;;;;;5026945;28;20229;-80
2023/08/14 00:38:59;;;;;;;5.40;4.17;;;;;;;;;;5028191;28;20312;-80
2023/08/14 00:41:24;;;;;;;4.77;4.37;;;;;;;;;;5029093;28;20232;-80
2023/08/14 00:43:51;;;;;;;5.67;4.70;;;;;;;;;;5033145;28;20273;-80
2023/08/14 00:46:16;;;;;;;6.53;4.27;;;;;;;;;;5031844;28;20188;-80
2023/08/14 00:48:42;;;;;;;4.10;3.80;;;;;;;;;;5031970;28;20192;-80
2023/08/14 00:51:10;;;;;;;6.53;4.30;;;;;;;;;;5030189;28;20207;-80
2023/08/14 00:53:35;;;;;;;4.80;4.33;;;;;;;;;;5044746;28;20199;-80
2023/08/14 00:56:01;;;;;;;5.40;4.90;;;;;;;;;;5031818;28;20202;-80
2023/08/14 00:58:27;;;;;;;5.37;4.87;;;;;;;;;;5029801;28;20175;-80
2023/08/14 01:00:53;;;;;;;7.23;5.63;;;;;;;;;;5032142;28;20246;-80
2023/08/14 01:03:19;;;;;;;5.57;5.10;;;;;;;;;;5031157;28;20205;-80
2023/08/14 01:05:45;;;;;;;5.10;4.60;;;;;;;;;;5031869;28;20188;-80
2023/08/14 01:08:10;;;;;;;5.73;5.17;;;;;;;;;;5031634;28;20193;-80
2023/08/14 01:10:54;;;;;;;9.00;5.27;;;;;;;;;;5027927;28;20187;-80
2023/08/14 01:13:37;;;;;;;5.40;4.83;;;;;;;;;;5042366;28;20178;-81
2023/08/14 01:16:06;;;;;;;10.37;5.80;;;;;;;;;;5046167;28;20270;-83
2023/08/14 01:18:33;;;;;;;6.20;5.60;;;;;;;;;;5032612;28;20242;-82
2023/08/14 01:21:04;;;;;;;6.30;5.70;;;;;;;;;;5044072;28;20270;-82
2023/08/14 01:23:38;;;;;;;7.60;5.93;;;;;;;;;;5025048;28;20186;-81
2023/08/14 01:26:03;;;;;;;7.43;6.33;;;;;;;;;;5046488;28;20180;-81
2023/08/14 01:28:29;;;;;;;6.80;6.10;;;;;;;;;;5030184;28;20238;-81
2023/08/14 01:30:54;;;;;;;7.10;6.27;;;;;;;;;;5028224;28;20197;-81
2023/08/14 01:33:19;;;;;;;6.97;5.97;;;;;;;;;;5028247;28;20182;-81
2023/08/14 01:35:48;;;;;;;5.87;5.37;;;;;;;;;;5030328;28;20238;-81
2023/08/14 01:38:16;;;;;;;8.00;5.93;;;;;;;;;;5029654;28;20175;-81
2023/08/14 01:41:00;;;;;;;8.13;6.33;;;;;;;;;;5029703;28;20172;-82
2023/08/14 01:43:36;;;;;;;6.53;5.93;;;;;;;;;;5040880;28;20192;-82
2023/08/14 01:46:02;;;;;;;6.17;5.67;;;;;;;;;;5043908;28;20189;-81
2023/08/14 01:48:27;;;;;;;7.73;6.07;;;;;;;;;;5046248;28;20181;-81
2023/08/14 01:50:53;;;;;;;6.90;6.20;;;;;;;;;;5030649;28;20209;-81
2023/08/14 01:53:18;;;;;;;7.17;5.60;;;;;;;;;;5045063;28;20177;-81
2023/08/14 01:55:44;;;;;;;5.53;5.03;;;;;;;;;;5032074;28;20208;-81
2023/08/14 01:58:09;;;;;;;6.10;5.40;;;;;;;;;;5030147;28;20181;-81
2023/08/14 02:00:34;;;;;;;4.63;4.23;;;;;;;;;;5030044;28;20190;-81
2023/08/14 02:03:00;;;;;;;5.37;4.20;;;;;;;;;;5025403;28;20217;-81
2023/08/14 02:05:25;;;;;;;5.47;4.07;;;;;;;;;;5034832;28;20174;-81
2023/08/14 02:07:50;;;;;;;4.97;4.47;;;;;;;;;;5029667;28;20174;-81
2023/08/14 02:10:16;;;;;;;4.90;4.50;;;;;;;;;;5029114;28;20180;-81
2023/08/14 02:12:41;;;;;;;4.57;4.17;;;;;;;;;;5047713;28;20175;-81
2023/08/14 02:15:06;;;;;;;7.10;4.50;;;;;;;;;;5029517;28;20227;-81
2023/08/14 02:17:31;;;;;;;4.90;4.50;;;;;;;;;;5028042;28;20223;-81
2023/08/14 02:19:57;;;;;;;7.97;5.23;;;;;;;;;;5026682;28;20181;-81
2023/08/14 02:22:22;;;;;;;4.47;4.07;;;;;;;;;;5027433;28;20178;-81
2023/08/14 02:24:47;;;;;;;4.67;4.27;;;;;;;;;;5023611;28;20176;-81
2023/08/14 02:27:12;;;;;;;5.10;3.93;;;;;;;;;;5044944;28;20186;-81
2023/08/14 02:29:37;;;;;;;4.27;3.57;;;;;;;;;;5030582;28;20204;-81
2023/08/14 02:32:03;;;;;;;6.13;4.40;;;;;;;;;;5045438;28;20215;-81
2023/08/14 02:34:43;;;;;;;4.80;4.30;;;;;;;;;;5025558;28;20185;-81
2023/08/14 02:37:09;;;;;;;3.87;3.57;;;;;;;;;;5027764;28;20214;-81
2023/08/14 02:39:34;;;;;;;3.40;3.10;;;;;;;;;;5012385;28;20180;-81
2023/08/14 02:41:59;;;;;;;3.60;3.10;;;;;;;;;;5009086;28;20207;-81
2023/08/14 02:44:24;;;;;;;3.63;3.10;;;;;;;;;;5009324;28;20238;-81
2023/08/14 02:46:50;;;;;;;4.17;3.20;;;;;;;;;;5011430;28;20190;-81
2023/08/14 02:49:15;;;;;;;3.43;3.13;;;;;;;;;;5002876;28;20267;-81
2023/08/14 02:51:40;;;;;;;3.13;2.90;;;;;;;;;;5026909;28;20210;-81
2023/08/14 02:54:05;;;;;;;3.80;3.20;;;;;;;;;;5012024;28;20201;-81
2023/08/14 02:56:30;;;;;;;4.67;3.40;;;;;;;;;;5005909;28;20213;-81
2023/08/14 02:58:56;;;;;;;4.53;3.60;;;;;;;;;;5007758;28;20305;-81
2023/08/14 03:01:21;;;;;;;3.97;3.57;;;;;;;;;;5009000;28;20185;-81
2023/08/14 03:03:46;;;;;;;4.30;3.60;;;;;;;;;;5008812;28;20235;-81
2023/08/14 03:06:11;;;;;;;4.23;3.67;;;;;;;;;;5025945;28;20183;-81
2023/08/14 03:08:36;;;;;;;3.70;3.30;;;;;;;;;;5006868;28;20184;-81
2023/08/14 03:11:01;;;;;;;4.00;3.10;;;;;;;;;;5005258;28;20217;-81
2023/08/14 03:13:27;;;;;;;4.57;3.90;;;;;;;;;;5011015;28;20192;-81
2023/08/14 03:15:52;;;;;;;4.03;3.40;;;;;;;;;;5009355;28;20201;-81
2023/08/14 03:18:17;;;;;;;3.63;3.33;;;;;;;;;;5008413;28;20179;-81
2023/08/14 03:20:42;;;;;;;3.30;3.00;;;;;;;;;;5007502;28;20190;-81
2023/08/14 03:23:07;;;;;;;3.57;3.10;;;;;;;;;;5007021;28;20239;-81
2023/08/14 03:25:33;;;;;;;3.47;2.87;;;;;;;;;;5009614;28;20266;-81
2023/08/14 03:27:58;;;;;;;3.00;2.70;;;;;;;;;;5009457;28;20174;-81
2023/08/14 03:30:23;;;;;;;3.60;3.30;;;;;;;;;;5008082;28;20241;-81
2023/08/14 03:32:48;;;;;;;3.85;3.55;;;;;;;;;;5010159;28;20286;-81
2023/08/14 03:35:13;;;;;;;6.03;4.40;;;;;;;;;;5012354;28;20297;-81
2023/08/14 03:37:39;;;;;;;3.90;3.37;;;;;;;;;;5029673;28;20231;-81
2023/08/14 03:40:04;;;;;;;4.27;3.87;;;;;;;;;;5029027;28;20174;-81
2023/08/14 03:42:29;;;;;;;3.43;3.13;;;;;;;;;;5043399;28;20185;-81
2023/08/14 03:44:55;;;;;;;3.30;3.00;;;;;;;;;;5045571;28;20169;-81
2023/08/14 03:47:20;;;;;;;3.60;3.20;;;;;;;;;;5025609;28;20190;-81
2023/08/14 03:49:45;;;;;;;4.07;3.13;;;;;;;;;;5026782;28;20187;-81
2023/08/14 03:52:10;;;;;;;4.57;3.10;;;;;;;;;;5022563;28;20281;-81
2023/08/14 03:54:36;;;;;;;5.47;3.00;;;;;;;;;;5023921;28;20184;-81
2023/08/14 03:57:02;;;;;;;3.50;2.50;;;;;;;;;;5025208;28;20221;-81
2023/08/14 03:59:27;;;;;;;2.73;2.40;;;;;;;;;;5027555;28;20175;-81
2023/08/14 04:01:52;;;;;;;3.10;2.83;;;;;;;;;;5027966;28;20212;-81
2023/08/14 04:04:17;;;;;;;3.57;2.43;;;;;;;;;;5021097;28;20199;-81
2023/08/14 04:06:44;;;;;;;2.47;2.23;;;;;;;;;;5026884;28;20190;-81
2023/08/14 04:09:09;;;;;;;2.67;2.47;;;;;;;;;;5041053;28;20176;-81
2023/08/14 04:11:34;;;;;;;3.13;2.50;;;;;;;;;;5039256;28;20288;-81
2023/08/14 04:13:59;;;;;;;2.80;2.57;;;;;;;;;;5030134;28;20229;-81
2023/08/14 04:16:41;;;;;;;2.63;2.40;;;;;;;;;;5031264;28;20194;-81
2023/08/14 04:19:06;;;;;;;2.17;1.90;;;;;;;;;;5029502;28;20251;-81
2023/08/14 04:21:31;;;;;;;1.77;1.67;;;;;;;;;;5029553;28;20289;-81
2023/08/14 04:23:56;;;;;;;1.83;1.73;;;;;;;;;;5046741;28;20189;-81
2023/08/14 04:26:22;;;;;;;2.40;1.90;;;;;;;;;;5031800;28;20181;-81
2023/08/14 04:28:47;;;;;;;2.13;1.93;;;;;;;;;;5032873;28;20190;-81
2023/08/14 04:31:12;;;;;;;2.20;2.00;;;;;;;;;;5032487;28;20189;-81
2023/08/14 04:33:37;;;;;;;2.20;2.10;;;;;;;;;;5025120;28;20255;-81
2023/08/14 04:36:02;;;;;;;5.07;4.37;;;;;;;;;;5033705;28;20237;-81
2023/08/14 04:38:28;;;;;;;3.43;3.17;;;;;;;;;;5032871;28;20212;-82
2023/08/14 04:40:53;;;;;;;5.20;2.60;;;;;;;;;;5032617;28;20186;-81
2023/08/14 04:43:18;;;;;;;2.60;2.40;;;;;;;;;;5031083;28;20235;-81
2023/08/14 04:45:43;;;;;;;2.60;2.40;;;;;;;;;;5028464;28;20192;-81
2023/08/14 04:48:08;;;;;;;2.97;2.37;;;;;;;;;;5049355;28;20301;-81
2023/08/14 04:50:33;;;;;;;2.60;2.40;;;;;;;;;;5033869;28;20211;-81
2023/08/14 04:52:59;;;;;;;2.00;1.90;;;;;;;;;;5029582;28;20234;-81
2023/08/14 04:55:24;;;;;;;2.50;1.97;;;;;;;;;;5034095;28;20174;-81
2023/08/14 04:57:49;;;;;;;2.40;2.20;;;;;;;;;;5029396;28;20194;-81
2023/08/14 05:00:15;;;;;;;2.13;1.97;;;;;;;;;;5026423;28;20275;-81
2023/08/14 05:02:40;;;;;;;1.60;1.50;;;;;;;;;;5030840;28;20176;-81
2023/08/14 05:05:05;;;;;;;2.77;1.90;;;;;;;;;;5032403;28;20183;-81
2023/08/14 05:07:30;;;;;;;1.83;1.67;;;;;;;;;;5028546;28;20190;-81
2023/08/14 05:09:56;;;;;;;1.50;1.40;;;;;;;;;;5048360;28;20197;-81
2023/08/14 05:12:21;;;;;;;2.33;1.33;;;;;;;;;;5033749;28;20189;-81
2023/08/14 05:14:46;;;;;;;1.23;1.13;;;;;;;;;;5046065;28;20193;-81
2023/08/14 05:17:11;;;;;;;1.20;1.10;;;;;;;;;;5025073;28;20210;-76
2023/08/14 05:19:36;;;;;;;1.10;1.10;;;;;;;;;;5028569;28;20183;-76
2023/08/14 05:22:02;;;;;;;1.47;1.17;;;;;;;;;;5048828;28;20208;-76
2023/08/14 05:24:27;;;;;;;9.93;2.20;;;;;;;;;;5031498;28;20240;-76
2023/08/14 05:26:52;;;;;;;1.23;1.20;;;;;;;;;;5031066;28;20257;-76
2023/08/14 05:29:17;;;;;;;4.07;1.43;;;;;;;;;;5029152;28;20192;-76
2023/08/14 05:31:42;;;;;;;2.80;1.53;;;;;;;;;;5039158;28;20194;-76
2023/08/14 05:34:08;;;;;;;1.50;1.40;;;;;;;;;;5041891;28;20189;-76
2023/08/14 05:36:33;;;;;;;1.70;1.60;;;;;;;;;;5045698;28;20231;-76
2023/08/14 05:38:58;;;;;;;5.83;5.33;;;;;;;;;;5031203;28;20184;-76
2023/08/14 05:41:23;;;;;;;3.50;2.30;;;;;;;;;;5032368;28;20197;-76
2023/08/14 05:43:49;;;;;;;3.53;2.00;;;;;;;;;;5030043;28;20174;-76
2023/08/14 05:46:14;;;;;;;2.37;2.10;;;;;;;;;;5026785;28;20185;-76
2023/08/14 05:48:39;;;;;;;3.03;2.47;;;;;;;;;;5026505;28;20242;-76
2023/08/14 05:51:04;;;;;;;3.33;3.03;;;;;;;;;;5022469;28;20199;-76
2023/08/14 05:53:30;;;;;;;2.80;2.60;;;;;;;;;;5029376;28;20274;-76
2023/08/14 05:55:55;;;;;;;4.30;2.80;;;;;;;;;;5030710;28;20193;-76
2023/08/14 05:58:21;;;;;;;3.27;2.97;;;;;;;;;;5029161;28;20171;-76
2023/08/14 06:00:46;;;;;;;5.23;3.07;;;;;;;;;;5031231;28;20216;-76
2023/08/14 06:03:11;;;;;;;3.63;3.20;;;;;;;;;;5032521;28;20189;-76
2023/08/14 06:05:36;;;;;;;3.30;3.00;;;;;;;;;;5030920;28;20195;-76
2023/08/14 06:08:03;;;;;;;3.00;2.80;;;;;;;;;;5021654;28;20237;-76
2023/08/14 06:10:28;;;;;;;4.07;2.57;;;;;;;;;;5038425;28;20190;-76
2023/08/14 06:12:53;;;;;;;2.73;2.43;;;;;;;;;;5029692;28;20184;-76
2023/08/14 06:15:19;;;;;;;3.60;2.43;;;;;;;;;;5027919;28;20230;-76
2023/08/14 06:17:45;;;;;;;2.83;2.63;;;;;;;;;;5029878;28;20288;-76
2023/08/14 06:20:11;;;;;;;4.40;2.47;;;;;;;;;;5026962;28;20179;-76
2023/08/14 06:22:46;;;;;;;2.80;2.37;;;;;;;;;;5018055;28;20181;-76
2023/08/14 06:25:11;;;;;;;3.97;2.43;;;;;;;;;;5021061;28;20182;-76
2023/08/14 06:27:37;;;;;;;3.80;2.43;;;;;;;;;;5022415;28;20200;-76
2023/08/14 06:30:03;;;;;;;3.17;2.87;;;;;;;;;;5027800;28;20197;-76
2023/08/14 06:32:28;;;;;;;3.17;2.97;;;;;;;;;;5028321;28;20238;-76
2023/08/14 06:34:53;;;;;;;3.00;2.70;;;;;;;;;;5030293;28;20241;-76
2023/08/14 06:37:19;;;;;;;3.73;3.07;;;;;;;;;;5029930;28;20207;-76
2023/08/14 06:39:44;;;;;;;4.53;3.07;;;;;;;;;;5028687;28;20213;-76
2023/08/14 06:42:09;;;;;;;3.50;3.20;;;;;;;;;;5029628;28;20184;-76
2023/08/14 06:44:34;;;;;;;3.30;2.73;;;;;;;;;;5031004;28;20212;-76
2023/08/14 06:46:59;;;;;;;3.73;3.43;;;;;;;;;;5030869;28;20179;-77
2023/08/14 06:49:25;;;;;;;4.60;3.23;;;;;;;;;;5023172;28;20190;-77
2023/08/14 06:51:50;;;;;;;3.47;3.17;;;;;;;;;;5039702;28;20215;-76
2023/08/14 06:54:15;;;;;;;5.17;2.80;;;;;;;;;;5028346;28;20180;-76
2023/08/14 06:56:40;;;;;;;3.53;3.20;;;;;;;;;;5042375;28;20189;-76
2023/08/14 06:59:05;;;;;;;5.10;3.07;;;;;;;;;;5023171;28;20242;-76
2023/08/14 07:01:31;;;;;;;3.20;2.93;;;;;;;;;;5027296;28;20184;-76
2023/08/14 07:03:56;;;;;;;3.63;3.10;;;;;;;;;;5026919;28;20189;-76
2023/08/14 07:06:21;;;;;;;5.80;3.13;;;;;;;;;;5025754;28;20174;-76
2023/08/14 07:08:46;;;;;;;3.53;2.70;;;;;;;;;;5042166;28;20192;-77
2023/08/14 07:11:11;;;;;;;4.40;2.57;;;;;;;;;;5038993;28;20178;-74
2023/08/14 07:13:37;;;;;;;3.53;2.60;;;;;;;;;;5019349;28;20300;-73
2023/08/14 07:16:02;;;;;;;2.50;2.30;;;;;;;;;;5042326;28;20205;-72
2023/08/14 07:18:27;;;;;;;2.83;2.50;;;;;;;;;;5033386;28;20236;-73
2023/08/14 07:20:53;;;;;;;2.37;2.10;;;;;;;;;;5019573;28;20175;-73
2023/08/14 07:23:18;;;;;;;4.57;3.70;;;;;;;;;;5029193;28;20203;-72
2023/08/14 07:25:44;;;;;;;4.33;3.93;;;;;;;;;;5029452;28;20201;-73
2023/08/14 07:28:09;;;;;;;24.57;5.30;;;;;;;;;;5025930;28;20209;-73
2023/08/14 07:30:34;;;;;;;9.97;5.33;;;;;;;;;;5026973;28;20197;-73
2023/08/14 07:32:59;;;;;;;2.50;2.30;;;;;;;;;;5037772;28;20171;-73
2023/08/14 07:35:25;;;;;;;4.00;2.63;;;;;;;;;;5028952;28;20210;-73
2023/08/14 07:37:50;;;;;;;3.93;2.80;;;;;;;;;;5028197;28;20209;-73
2023/08/14 07:40:15;;;;;;;5.28;3.40;;;;;;;;;;5025522;28;20261;-72
2023/08/14 07:42:40;;;;;;;2.60;2.40;;;;;;;;;;5040895;28;20233;-72
2023/08/14 07:45:06;;;;;;;2.90;2.60;;;;;;;;;;5025419;28;20178;-72
2023/08/14 07:47:31;;;;;;;9.82;3.25;;;;;;;;;;5027451;28;20210;-73
2023/08/14 07:49:56;;;;;;;6.63;3.87;;;;;;;;;;5019225;28;20236;-72
2023/08/14 07:52:21;;;;;;;2.90;2.57;;;;;;;;;;5023016;28;20190;-73
2023/08/14 07:54:47;;;;;;;2.80;2.60;;;;;;;;;;5027254;28;20188;-73
2023/08/14 07:57:12;;;;;;;3.10;2.83;;;;;;;;;;5027790;28;20194;-73
2023/08/14 07:59:37;;;;;;;5.40;3.63;;;;;;;;;;5019585;28;20185;-73
2023/08/14 08:02:02;;;;;;;3.17;2.97;;;;;;;;;;5020174;28;20262;-72
2023/08/14 08:04:29;;;;;;;3.58;3.28;;;;;;;;;;5021460;28;20186;-72
2023/08/14 08:06:54;;;;;;;5.65;4.93;;;;;;;;;;5022829;28;20182;-72
2023/08/14 08:09:19;;;;;;;3.60;3.30;;;;;;;;;;5020202;28;20179;-72
2023/08/14 08:11:45;;;;;;;3.60;3.30;;;;;;;;;;5032867;28;20168;-72
2023/08/14 08:14:10;;;;;;;3.55;2.95;;;;;;;;;;5023014;28;20269;-72
2023/08/14 08:16:36;;;;;;;3.40;3.10;;;;;;;;;;5016058;28;20359;-73
2023/08/14 08:19:04;;;;;;;3.40;3.10;;;;;;;;;;5034199;28;20270;-72
2023/08/14 08:21:30;;;;;;;3.65;3.08;;;;;;;;;;5018797;28;20202;-72
2023/08/14 08:23:55;;;;;;;3.33;3.08;;;;;;;;;;5027935;28;20221;-73
2023/08/14 08:26:20;;;;;;;4.13;3.17;;;;;;;;;;5030129;28;20242;-72
2023/08/14 08:28:45;;;;;;;3.13;2.83;;;;;;;;;;5026581;28;20190;-72
2023/08/14 08:31:10;;;;;;;3.33;3.03;;;;;;;;;;5023960;28;20190;-73
2023/08/14 08:33:36;;;;;;;5.53;5.03;;;;;;;;;;5026334;28;20262;-72
2023/08/14 08:36:01;;;;;;;4.65;3.40;;;;;;;;;;5027008;28;20230;-73
2023/08/14 08:38:26;;;;;;;4.15;3.25;;;;;;;;;;5023498;28;20171;-72
2023/08/14 08:40:51;;;;;;;4.55;3.65;;;;;;;;;;5029926;28;20198;-72
2023/08/14 08:43:17;;;;;;;4.13;3.75;;;;;;;;;;5027269;28;20183;-72
2023/08/14 08:45:47;;;;;;;4.47;3.80;;;;;;;;;;5023019;28;20198;-72
2023/08/14 08:48:16;;;;;;;4.47;3.75;;;;;;;;;;5042656;28;20179;-72
2023/08/14 08:50:41;;;;;;;4.20;3.83;;;;;;;;;;5027893;28;20210;-76
2023/08/14 08:53:07;;;;;;;4.43;4.00;;;;;;;;;;5028602;28;20175;-76
2023/08/14 08:55:32;;;;;;;4.88;4.47;;;;;;;;;;5025867;28;20175;-75
2023/08/14 08:57:58;;;;;;;4.70;4.25;;;;;;;;;;5039481;28;20182;-75
2023/08/14 09:00:24;;;;;;;7.13;4.32;;;;;;;;;;5031305;28;20174;-75
2023/08/14 09:02:49;;;;;;;5.53;3.97;;;;;;;;;;5047573;28;20225;-76
2023/08/14 09:05:14;;;;;;;5.50;3.88;;;;;;;;;;5027230;28;20195;-75
2023/08/14 09:07:39;;;;;;;4.20;3.88;;;;;;;;;;5027897;28;20189;-76
2023/08/14 09:10:05;;;;;;;4.22;3.90;;;;;;;;;;5020494;28;20195;-75
2023/08/14 09:12:30;;;;;;;5.47;4.18;;;;;;;;;;5032900;28;20214;-76
2023/08/14 09:15:04;;;;;;;5.22;4.22;;;;;;;;;;5031979;28;20191;-76
2023/08/14 09:17:29;;;;;;;4.22;3.80;;;;;;;;;;5029743;28;20213;-76
2023/08/14 09:19:54;;;;;;;4.15;3.75;;;;;;;;;;5043974;28;20247;-76
2023/08/14 09:22:19;;;;;;;5.35;4.70;;;;;;;;;;5030757;28;20224;-76
2023/08/14 09:24:47;;;;;;;6.15;4.07;;;;;;;;;;5026605;28;20182;-76
2023/08/14 09:27:13;;;;;;;5.80;3.75;;;;;;;;;;5041052;28;20183;-76
2023/08/14 09:29:38;;;;;;;5.30;4.13;;;;;;;;;;5024864;28;20186;-76
2023/08/14 09:32:04;;;;;;;4.25;3.85;;;;;;;;;;5023037;28;20187;-75
2023/08/14 09:34:30;;;;;;;4.28;3.88;;;;;;;;;;5027200;28;20191;-75
2023/08/14 09:36:56;;;;;;;5.05;4.05;;;;;;;;;;5026569;28;20262;-76
2023/08/14 09:39:23;;;;;;;6.70;4.05;;;;;;;;;;5046674;28;20205;-76
2023/08/14 09:41:49;;;;;;;5.05;4.40;;;;;;;;;;5030805;28;20175;-76
2023/08/14 09:44:14;;;;;;;4.60;4.00;;;;;;;;;;5031823;28;20178;-75
2023/08/14 09:46:40;;;;;;;8.05;5.45;;;;;;;;;;5027949;28;20190;-76
2023/08/14 09:49:05;;;;;;;5.05;3.67;;;;;;;;;;5031906;28;20191;-75
2023/08/14 09:51:31;;;;;;;4.25;3.88;;;;;;;;;;5029067;28;20206;-76
2023/08/14 09:53:57;;;;;;;5.82;3.83;;;;;;;;;;5051204;28;20220;-76
2023/08/14 09:56:23;;;;;;;5.68;3.92;;;;;;;;;;5029382;28;20199;-76
2023/08/14 09:58:48;;;;;;;3.70;3.33;;;;;;;;;;5031258;28;20186;-75
2023/08/14 10:01:15;;;;;;;3.85;3.20;;;;;;;;;;5024702;28;20261;-76
2023/08/14 10:03:41;;;;;;;4.85;3.65;;;;;;;;;;5028999;28;20178;-76
2023/08/14 10:06:07;;;;;;;5.35;4.22;;;;;;;;;;5025521;28;20193;-76
2023/08/14 10:08:34;;;;;;;3.80;3.50;;;;;;;;;;5027210;28;20186;-75
2023/08/14 10:11:01;;;;;;;7.85;4.15;;;;;;;;;;5030973;28;20258;-76
2023/08/14 10:13:28;;;;;;;6.88;3.83;;;;;;;;;;5030397;28;20184;-75
2023/08/14 10:15:55;;;;;;;4.55;3.60;;;;;;;;;;5027435;28;20193;-76
2023/08/14 10:18:22;;;;;;;4.20;3.90;;;;;;;;;;5032162;28;20190;-75
2023/08/14 10:20:48;;;;;;;4.93;3.22;;;;;;;;;;5030325;28;20178;-76
2023/08/14 10:23:14;;;;;;;5.18;3.63;;;;;;;;;;5029225;28;20182;-76
2023/08/14 10:25:40;;;;;;;5.03;3.58;;;;;;;;;;5027514;28;20181;-76
2023/08/14 10:28:07;;;;;;;5.78;4.15;;;;;;;;;;5027244;28;20298;-75
2023/08/14 10:30:32;;;;;;;6.43;3.50;;;;;;;;;;5029907;28;20190;-76
2023/08/14 10:32:58;;;;;;;5.28;3.42;;;;;;;;;;5025768;28;20183;-76
2023/08/14 10:35:25;;;;;;;4.40;3.83;;;;;;;;;;5030610;28;20270;-76
2023/08/14 10:37:51;;;;;;;4.00;3.60;;;;;;;;;;5028604;28;20214;-76
2023/08/14 10:40:21;;;;;;;6.35;3.95;;;;;;;;;;5022321;28;20167;-76
2023/08/14 10:42:46;;;;;;;8.60;3.75;;;;;;;;;;5030250;28;20186;-76
2023/08/14 10:45:15;;;;;;;6.13;4.03;;;;;;;;;;5025439;28;20178;-76
2023/08/14 10:47:41;;;;;;;7.75;4.38;;;;;;;;;;5025400;28;20175;-75
2023/08/14 10:50:17;;;;;;;4.20;3.75;;;;;;;;;;5018192;28;20194;-76
2023/08/14 10:52:50;;;;;;;4.15;3.38;;;;;;;;;;5024501;28;20202;-75
2023/08/14 10:55:16;;;;;;;3.60;3.30;;;;;;;;;;5025154;28;20190;-75
2023/08/14 10:57:41;;;;;;;3.90;2.97;;;;;;;;;;5021098;28;20199;-76
2023/08/14 11:00:19;;;;;;;4.88;3.30;;;;;;;;;;5025213;28;20181;-76
2023/08/14 11:02:48;;;;;;;3.30;2.90;;;;;;;;;;5029909;28;20183;-76
2023/08/14 11:05:16;;;;;;;4.05;3.25;;;;;;;;;;5041338;28;20246;-75
2023/08/14 11:07:41;;;;;;;4.22;3.83;;;;;;;;;;5028345;28;20183;-76
2023/08/14 11:10:12;;;;;;;3.90;3.60;;;;;;;;;;5030330;28;20242;-76
2023/08/14 11:12:38;;;;;;;4.70;3.50;;;;;;;;;;5027386;28;20428;-76
2023/08/14 11:15:05;;;;;;;4.85;3.33;;;;;;;;;;5027912;28;20194;-76
2023/08/14 11:17:30;;;;;;;4.00;3.53;;;;;;;;;;5026816;28;20225;-76
2023/08/14 11:19:55;;;;;;;3.13;2.93;;;;;;;;;;5026245;28;20171;-76
2023/08/14 11:22:21;;;;;;;4.10;3.17;;;;;;;;;;5024109;28;20444;-76
2023/08/14 11:24:47;;;;;;;3.92;3.53;;;;;;;;;;5022089;28;20183;-76
2023/08/14 11:27:12;;;;;;;4.68;3.58;;;;;;;;;;5021534;28;20179;-75
2023/08/14 11:29:37;;;;;;;3.60;3.30;;;;;;;;;;5021798;28;20266;-75
2023/08/14 11:32:02;;;;;;;3.50;3.22;;;;;;;;;;5020814;28;20435;-76
2023/08/14 11:34:28;;;;;;;3.47;3.28;;;;;;;;;;5024964;28;20182;-76
2023/08/14 11:36:57;;;;;;;3.70;3.40;;;;;;;;;;5030088;28;20233;-76
2023/08/14 11:39:23;;;;;;;3.80;3.50;;;;;;;;;;5028943;28;20266;-75
2023/08/14 11:41:48;;;;;;;4.75;3.63;;;;;;;;;;5025764;28;20266;-75
2023/08/14 11:44:13;;;;;;;3.47;3.28;;;;;;;;;;5025846;28;20178;-75
2023/08/14 11:46:38;;;;;;;3.53;3.22;;;;;;;;;;5023436;28;20217;-75
2023/08/14 11:49:04;;;;;;;3.58;3.13;;;;;;;;;;5018995;28;20191;-75
2023/08/14 11:51:31;;;;;;;4.10;3.67;;;;;;;;;;5025453;28;20213;-76
2023/08/14 11:53:56;;;;;;;3.47;3.20;;;;;;;;;;5021034;28;20240;-76
2023/08/14 11:56:21;;;;;;;4.13;3.67;;;;;;;;;;5024237;28;20285;-76
2023/08/14 11:58:46;;;;;;;4.03;3.72;;;;;;;;;;5024672;28;20182;-75
2023/08/14 12:01:11;;;;;;;4.50;3.97;;;;;;;;;;5020070;28;20172;-76
2023/08/14 12:03:37;;;;;;;3.65;3.35;;;;;;;;;;5027807;28;20261;-75
2023/08/14 12:06:05;;;;;;;4.05;3.75;;;;;;;;;;5024367;28;20179;-76
2023/08/14 12:08:31;;;;;;;5.05;3.95;;;;;;;;;;5023229;28;20186;-75
2023/08/14 12:10:56;;;;;;;4.85;3.85;;;;;;;;;;5028521;28;20189;-76
2023/08/14 12:13:22;;;;;;;7.95;3.40;;;;;;;;;;5024704;28;20179;-76
2023/08/14 12:15:47;;;;;;;6.03;4.35;;;;;;;;;;5028024;28;20179;-75
2023/08/14 12:18:19;;;;;;;4.20;3.80;;;;;;;;;;5019189;28;20224;-75
2023/08/14 12:20:49;;;;;;;5.78;3.80;;;;;;;;;;5024620;28;20175;-75
2023/08/14 12:23:14;;;;;;;4.70;3.90;;;;;;;;;;5027611;28;20201;-75
2023/08/14 12:25:40;;;;;;;3.90;3.50;;;;;;;;;;5028058;28;20235;-75
2023/08/14 12:28:05;;;;;;;5.05;3.80;;;;;;;;;;5023592;28;20179;-76
2023/08/14 12:30:30;;;;;;;5.23;3.73;;;;;;;;;;5043578;28;20189;-75
2023/08/14 12:32:56;;;;;;;7.85;4.18;;;;;;;;;;5025875;28;20409;-76
2023/08/14 12:35:22;;;;;;;4.05;3.75;;;;;;;;;;5035158;28;20226;-76
2023/08/14 12:37:47;;;;;;;5.88;3.65;;;;;;;;;;5029178;28;20215;-76
2023/08/14 12:40:12;;;;;;;3.95;3.65;;;;;;;;;;5028752;28;20179;-76
2023/08/14 12:42:38;;;;;;;3.73;3.40;;;;;;;;;;5029942;28;20175;-76
2023/08/14 12:45:04;;;;;;;4.22;3.20;;;;;;;;;;5030426;28;20482;-76
2023/08/14 12:47:29;;;;;;;4.65;3.42;;;;;;;;;;5023334;28;20186;-76
2023/08/14 12:49:54;;;;;;;3.67;3.37;;;;;;;;;;5028091;28;20194;-76
2023/08/14 12:52:20;;;;;;;4.10;3.70;;;;;;;;;;5041341;28;20483;-76
2023/08/14 12:54:45;;;;;;;5.65;4.18;;;;;;;;;;5025367;28;20183;-75
2023/08/14 12:57:10;;;;;;;4.30;3.95;;;;;;;;;;5022449;28;20203;-75
2023/08/14 12:59:35;;;;;;;9.68;3.83;;;;;;;;;;5024506;28;20180;-75
2023/08/14 13:02:00;;;;;;;3.58;3.30;;;;;;;;;;5033707;28;20179;-75
2023/08/14 13:04:26;;;;;;;6.23;4.10;;;;;;;;;;5033282;28;20183;-75
2023/08/14 13:06:51;;;;;;;4.50;3.67;;;;;;;;;;5027300;28;20489;-75
2023/08/14 13:09:16;;;;;;;3.70;3.40;;;;;;;;;;5029337;28;20190;-75
2023/08/14 13:11:42;;;;;;;4.25;3.95;;;;;;;;;;5026457;28;20439;-75
2023/08/14 13:14:07;;;;;;;5.35;3.58;;;;;;;;;;5030225;28;20209;-75
2023/08/14 13:16:32;;;;;;;4.10;3.47;;;;;;;;;;5029910;28;20221;-76
2023/08/14 13:18:57;;;;;;;4.00;3.60;;;;;;;;;;5031435;28;20428;-75
2023/08/14 13:21:23;;;;;;;3.72;3.22;;;;;;;;;;5028571;28;20535;-82
2023/08/14 13:23:48;;;;;;;4.10;3.78;;;;;;;;;;5024643;28;20198;-80
2023/08/14 13:26:14;;;;;;;24.25;5.00;;;;;;;;;;5024857;28;20179;-80
2023/08/14 13:28:39;;;;;;;4.10;3.33;;;;;;;;;;5022598;28;20237;-80
2023/08/14 13:31:08;;;;;;;4.13;3.78;;;;;;;;;;5038778;28;20191;-80
2023/08/14 13:33:36;;;;;;;4.35;3.95;;;;;;;;;;5039441;28;20187;-80
2023/08/14 13:36:05;;;;;;;8.02;4.00;;;;;;;;;;5025383;28;20234;-80
2023/08/14 13:38:30;;;;;;;4.25;3.70;;;;;;;;;;5038374;28;20183;-80
2023/08/14 13:40:55;;;;;;;5.07;3.30;;;;;;;;;;5031522;28;20174;-80
2023/08/14 13:43:20;;;;;;;5.20;3.63;;;;;;;;;;5031630;28;20261;-80
2023/08/14 13:45:46;;;;;;;3.30;3.08;;;;;;;;;;5029153;28;20179;-80
2023/08/14 13:48:11;;;;;;;3.60;3.30;;;;;;;;;;5027901;28;20182;-80
2023/08/14 13:50:37;;;;;;;4.20;3.80;;;;;;;;;;5029912;28;20203;-80
2023/08/14 13:53:03;;;;;;;4.28;3.80;;;;;;;;;;5045973;28;20202;-80
2023/08/14 13:55:28;;;;;;;6.70;3.58;;;;;;;;;;5030218;28;20215;-80
2023/08/14 13:57:53;;;;;;;4.40;3.50;;;;;;;;;;5028223;28;20207;-80
2023/08/14 14:00:19;;;;;;;6.13;3.90;;;;;;;;;;5025819;28;20300;-80
2023/08/14 14:02:44;;;;;;;4.00;3.60;;;;;;;;;;5047185;28;20183;-79
2023/08/14 14:05:11;;;;;;;4.30;3.90;;;;;;;;;;5028546;28;20179;-80
2023/08/14 14:07:36;;;;;;;9.75;4.63;;;;;;;;;;5031591;28;20449;-79
2023/08/14 14:10:01;;;;;;;6.05;3.40;;;;;;;;;;5031974;28;20183;-79
2023/08/14 14:12:27;;;;;;;4.55;4.00;;;;;;;;;;5031070;28;20268;-79
2023/08/14 14:14:53;;;;;;;5.07;4.15;;;;;;;;;;5029925;28;20178;-81
2023/08/14 14:17:18;;;;;;;4.55;4.03;;;;;;;;;;5031745;28;20268;-80
2023/08/14 14:19:44;;;;;;;5.85;4.28;;;;;;;;;;5030651;28;20186;-80
2023/08/14 14:22:09;;;;;;;6.10;4.13;;;;;;;;;;5029170;28;20199;-80
2023/08/14 14:24:34;;;;;;;6.20;4.23;;;;;;;;;;5028598;28;20214;-81
2023/08/14 14:27:00;;;;;;;44.00;15.35;;;;;;;;;;5026540;28;20515;-74
2023/08/14 14:29:25;;;;;;;65.95;20.08;;;;;;;;;;5035485;28;20253;-72
2023/08/14 14:31:51;;;;;;;4.30;4.00;;;;;;;;;;5030233;28;20269;-75
2023/08/14 14:34:16;;;;;;;7.05;4.35;;;;;;;;;;5024262;28;20189;-75